Station info - map view · info · telemetry · weather · raw · status · beacons · messages · bulletins · browse · moving · my account
Callsign, ship name or locator: Clear       
It is possible to search using wildcards (*?) after a prefix. Example: OH*
APRS station KC9QPJ-9 - show graphs
Map loading...
Comment: 146.610MHz
Mic-E message: Off duty
Location: 42°27.15' N 89°02.09' W - locator EN52LK58TO - show map - static map
1.9 miles East bearing 90° from Rockton, Winnebago County, Illinois, United States [?]
2.8 miles South bearing 178° from South Beloit, Winnebago County, Illinois, United States
70.1 miles Southwest bearing 235° from Milwaukee, Milwaukee County, Wisconsin, United States
82.2 miles Northwest bearing 301° from Chicago, Cook County, Illinois, United States
Last position: 2020-08-07 19:45:08 EDT (1d 21h2m ago)
2020-08-07 18:45:08 CDT local time at Rockton, United States [?]
Altitude: 735 ft
Course: 121°
Speed: 24 MPH
Device: Yaesu: FTM-400DR (rig)
Last path: KC9QPJ-9>TRRW1U via WIDE1-1,WIDE2-1,qAR,KC9QPJ-10 (good)
Positions stored: 18855
Packet rate: 146 seconds between packets on average during 1172 seconds.
Other SSIDs: KC9QPJ KC9QPJ-1 KC9QPJ-10 KC9QPJ-4 KC9QPJ-5 KC9QPJ-7
Stations near current position of KC9QPJ-9 - show more
callsign distance last heard - EDT      callsign distance last heard - EDT
KC9QPJ-10189.3 yards 109°2020-08-09 16:16:04 N2RON-N2.1 miles 341°2020-08-09 16:29:45
N2RON2.1 miles 341°2020-08-09 16:22:26 N2RON-Ron2.1 miles 341°2020-08-09 16:22:34
FW67053.0 miles 120°2020-08-09 16:30:17 FW03134.1 miles 102°2020-08-03 12:58:24
FW57844.8 miles 301°2020-08-09 16:46:19 EW41185.4 miles 116°2020-08-09 16:45:20
K9VMY-N5.5 miles 189°2020-08-09 16:40:25 EW79227.7 miles 161°2020-08-09 16:46:25
N9DEA-N7.8 miles 182°2020-08-02 20:12:46 N8TA B8.6 miles 161°2020-07-25 09:34:05
N8TA-B8.6 miles 161°2020-07-25 09:34:15 N8TA-N8.6 miles 161°2020-08-09 16:45:32
N2RON-98.8 miles 177°2020-08-03 09:16:14 WX9RLT9.6 miles 186°2020-08-07 14:49:17
WX9RLT-99.6 miles 186°2020-07-19 14:06:42 KD9NKC-710.1 miles 171°2020-07-26 11:41:28
AK9F-911.1 miles 165°2020-08-08 17:52:23 FW133211.3 miles 104°2020-08-09 16:46:16
Stations which heard KC9QPJ-9 directly on radio –
callsign pkts first heard - EDT last heard longest (tx => rx) longest at - EDT
N9QIP-4 5 2020-08-01 13:08:33 2020-08-01 13:22:56 EN44RD > EN43RV 17.1 miles 185° 2020-08-01 13:08:33
W9LTA-10 13 2020-08-01 13:32:56 2020-08-01 14:15:08 EN53GL > EN54FA 37.5 miles 355° 2020-08-01 14:15:08
KB9ZWL 4 2020-08-01 11:34:04 2020-08-01 11:45:51 EN44GX > EN44FT 10.7 miles 209° 2020-08-01 11:34:04
N9QIP-11 11 2020-08-01 14:43:17 2020-08-01 15:21:08 EN52MM > EN52LT 20.2 miles 349° 2020-08-01 15:21:08
N9UWY-1 7 2020-08-01 12:02:01 2020-08-01 13:05:05 EN44JO > EN44SN 36.2 miles 95° 2020-08-01 12:02:01
N9QIP-9 2 2020-08-01 12:00:33 2020-08-01 13:15:08 EN44RA > EN44HC 41.3 miles 277° 2020-08-01 13:15:08
W9MQB 4 2020-08-01 14:57:04 2020-08-01 15:07:35 EN52LR > EN53OB 23.9 miles 26° 2020-08-01 15:07:35
N9ROY-11 1 2020-08-01 12:52:21 2020-08-01 12:52:21 EN44OH > EN44NJ 5.7 miles 351° 2020-08-01 12:52:21
KB9TEN 7 2020-08-01 14:26:42 2020-08-01 14:38:42 EN53GH > EN53ID 11.9 miles 154° 2020-08-01 14:26:42
N9ROY-13 4 2020-08-01 12:16:12 2020-08-01 12:51:04 EN44LK > EN44OA 29.5 miles 157° 2020-08-01 12:16:12
N9EM 3 2020-08-01 14:45:27 2020-08-01 14:48:43 EN53JA > EN53JA 3.5 miles 104° 2020-08-01 14:45:27
W9IKU-3 2 2020-08-01 14:12:19 2020-08-01 14:14:19 EN53GL > EN53GN 3.7 miles 13° 2020-08-01 14:14:19
N9EM-5 2 2020-08-01 14:40:45 2020-08-01 14:42:45 EN53IB > EN53HC 5.2 miles 298° 2020-08-01 14:42:45
KC9SQR-15 11 2020-08-01 15:25:13 2020-08-04 17:34:46 EN52LL > EN52LG 13.9 miles 193° 2020-08-01 15:45:40
N9UPC-4 2 2020-08-01 08:54:10 2020-08-01 09:34:32 EN45JX > EN46HA 10.2 miles 277° 2020-08-01 08:54:10
KD9EJA-10 11 2020-08-01 10:33:46 2020-08-01 11:34:08 EN45JM > EN45BG 36.3 miles 238° 2020-08-01 10:33:46
W0NE-2 1 2020-08-01 11:58:31 2020-08-01 11:58:31 EN44IP > EN44CA 50.6 miles 210° 2020-08-01 11:58:31
N9VHT-4 1 2020-08-01 14:24:45 2020-08-01 14:24:45 EN53GH > EN52FX 23.2 miles 195° 2020-08-01 14:24:45
KD9EJA-8 4 2020-08-01 10:36:00 2020-08-01 11:20:58 EN45FD > EN45GM 25.8 miles 1° 2020-08-01 11:20:58
WE9C0M-8 14 2020-08-01 09:31:04 2020-08-01 10:54:32 EN45HI > EN45HQ 23.6 miles 0° 2020-08-01 10:54:32
KC9QPJ-10 78 2020-08-01 15:15:49 2020-08-07 19:45:08 EN52MO > EN52LK 10.6 miles 194° 2020-08-01 15:15:49

Only position packets which were originated by the station are shown here. The range statistics show some extra long hops, because some digipeaters do not correctly add themselves to the digipeater path. Please check the raw packets.
About this site
This page shows real-time information collected from the Automatic Position Reporting System Internet network (APRS-IS). APRS is used by amateur (ham) radio operators to transmit real-time position information, weather data, telemetry and messages over the radio. A vehicle equipped with a GPS receiver, a VHF transmitter or HF transceiver and a small computer device called a tracker transmits it's location, speed and course in a small data packet, which is then received by a nearby iGate receiving site which forwards the packet on the Internet. Systems connected to the Internet can send information on the APRS-IS without a radio transmitter, or collect and display information transmitted anywhere in the world.
User guide · FAQ · Blog · Discussion group · Linking to aprs.fi · AIS sites · Service status · Database statistics · Advertising on aprs.fi · Technical details · API · Change log · Planned changes · Credits and thanks · Terms Of Service · iPhone/iPad APRS